createdAt,value
2023-05-07T00:00:41.247Z,9.02
2023-05-07T00:03:44.574Z,9.00
2023-05-07T00:06:47.693Z,8.96
2023-05-07T00:09:50.786Z,9.00
2023-05-07T00:12:54.021Z,8.94
2023-05-07T00:15:58.479Z,8.93
2023-05-07T00:19:01.506Z,8.93
2023-05-07T00:22:04.588Z,8.86
2023-05-07T00:25:08.712Z,8.89
2023-05-07T00:28:11.794Z,8.89
2023-05-07T00:31:16.260Z,8.91
2023-05-07T00:34:19.478Z,8.85
2023-05-07T00:37:22.513Z,8.86
2023-05-07T00:40:25.702Z,8.74
2023-05-07T00:43:29.715Z,8.67
2023-05-07T00:46:35.732Z,8.67
2023-05-07T00:49:42.266Z,8.70
2023-05-07T00:52:45.691Z,8.69
2023-05-07T00:55:48.744Z,8.70
2023-05-07T00:58:52.070Z,8.75
2023-05-07T01:01:56.711Z,8.71
2023-05-07T01:05:00.002Z,8.73
2023-05-07T01:08:04.474Z,8.75
2023-05-07T01:11:09.208Z,8.74
2023-05-07T01:14:12.565Z,8.75
2023-05-07T01:17:17.479Z,8.73
2023-05-07T01:20:22.399Z,8.75
2023-05-07T01:23:30.258Z,8.77
2023-05-07T01:26:33.464Z,8.79
2023-05-07T01:29:37.064Z,8.76
2023-05-07T01:32:45.762Z,8.79
2023-05-07T01:35:53.911Z,8.80
2023-05-07T01:38:59.882Z,8.80
2023-05-07T01:42:03.308Z,8.80
2023-05-07T01:45:08.259Z,8.79
2023-05-07T01:48:13.594Z,8.76
2023-05-07T01:51:17.661Z,8.77
2023-05-07T01:54:28.609Z,8.78
2023-05-07T01:57:32.419Z,8.77
2023-05-07T02:00:37.013Z,8.75
2023-05-07T02:03:40.772Z,8.80
2023-05-07T02:06:51.625Z,8.79
2023-05-07T02:09:56.804Z,8.79
2023-05-07T02:13:00.704Z,8.74
2023-05-07T02:16:04.139Z,8.78
2023-05-07T02:19:07.210Z,8.77
2023-05-07T02:22:12.502Z,8.80
2023-05-07T02:25:17.164Z,8.77
2023-05-07T02:28:20.349Z,8.81
2023-05-07T02:31:30.399Z,8.77
2023-05-07T02:34:33.637Z,8.81
2023-05-07T02:37:36.934Z,8.83
2023-05-07T02:40:41.699Z,8.84
2023-05-07T02:43:44.862Z,8.82
2023-05-07T02:46:48.489Z,8.84
2023-05-07T02:49:51.702Z,8.82
2023-05-07T02:52:54.766Z,8.83
2023-05-07T02:56:01.240Z,8.83
2023-05-07T02:59:04.512Z,8.78
2023-05-07T03:02:11.128Z,8.74
2023-05-07T03:05:15.413Z,8.78
2023-05-07T03:08:19.731Z,8.76
2023-05-07T03:11:24.135Z,8.73
2023-05-07T03:14:27.219Z,8.74
2023-05-07T03:17:30.945Z,8.75
2023-05-07T03:20:34.447Z,8.78
2023-05-07T03:23:37.701Z,8.76
2023-05-07T03:26:42.060Z,8.76
2023-05-07T03:29:45.281Z,8.76
2023-05-07T03:32:48.447Z,8.72
2023-05-07T03:35:51.729Z,8.73
2023-05-07T03:38:59.473Z,8.74
2023-05-07T03:42:12.736Z,8.73
2023-05-07T03:45:16.529Z,8.72
2023-05-07T03:48:24.261Z,8.68
2023-05-07T03:51:29.492Z,8.73
2023-05-07T03:54:32.708Z,8.69
2023-05-07T03:57:37.241Z,8.67
2023-05-07T04:00:41.530Z,8.66
2023-05-07T04:03:59.958Z,8.65
2023-05-07T04:07:04.038Z,8.70
2023-05-07T04:10:11.183Z,8.69
2023-05-07T04:13:18.213Z,8.66
2023-05-07T04:16:21.426Z,8.63
2023-05-07T04:19:26.318Z,8.66
2023-05-07T04:22:30.709Z,8.62
2023-05-07T04:25:34.077Z,8.64
2023-05-07T04:28:45.985Z,8.67
2023-05-07T04:31:49.542Z,8.63
2023-05-07T04:34:52.862Z,8.67
2023-05-07T04:37:56.362Z,8.74
2023-05-07T04:41:00.567Z,8.80
2023-05-07T04:44:06.939Z,8.79
2023-05-07T04:47:11.630Z,8.81
2023-05-07T04:50:14.815Z,8.83
2023-05-07T04:53:19.763Z,8.77
2023-05-07T04:56:23.088Z,8.81
2023-05-07T04:59:27.450Z,8.83
2023-05-07T05:02:30.953Z,8.82
2023-05-07T05:05:34.242Z,8.79
2023-05-07T05:08:39.421Z,8.87
2023-05-07T05:11:42.558Z,8.96
2023-05-07T05:14:47.205Z,9.01
2023-05-07T05:17:50.966Z,9.02
2023-05-07T05:20:54.835Z,8.88
2023-05-07T05:23:58.498Z,8.88
2023-05-07T05:27:03.090Z,8.91
2023-05-07T05:30:11.180Z,8.90
2023-05-07T05:33:15.847Z,8.83
2023-05-07T05:36:19.224Z,8.81
2023-05-07T05:39:24.218Z,8.81
2023-05-07T05:42:27.764Z,8.90
2023-05-07T05:45:33.379Z,8.89
2023-05-07T05:48:36.580Z,8.97
2023-05-07T05:51:41.656Z,9.09
2023-05-07T05:54:45.405Z,9.19
2023-05-07T05:57:48.715Z,9.02
2023-05-07T06:00:54.316Z,9.22
2023-05-07T06:04:01.061Z,9.27
2023-05-07T06:07:04.187Z,9.41
2023-05-07T06:10:09.431Z,9.47
2023-05-07T06:13:13.127Z,9.52
2023-05-07T06:16:18.586Z,9.34
2023-05-07T06:19:24.888Z,9.38
2023-05-07T06:22:30.359Z,9.41
2023-05-07T06:25:33.723Z,9.42
2023-05-07T06:28:37.528Z,9.43
2023-05-07T06:31:44.985Z,9.34
2023-05-07T06:34:48.424Z,9.36
2023-05-07T06:37:52.492Z,9.39
2023-05-07T06:41:00.053Z,9.54
2023-05-07T06:44:03.463Z,9.61
2023-05-07T06:47:16.156Z,9.76
2023-05-07T06:50:22.174Z,9.75
2023-05-07T06:53:26.867Z,9.81
2023-05-07T06:56:32.123Z,10.00
2023-05-07T06:59:35.849Z,10.13
2023-05-07T07:02:40.806Z,10.24
2023-05-07T07:05:44.615Z,10.43
2023-05-07T07:08:48.124Z,10.37
2023-05-07T07:11:53.404Z,10.35
2023-05-07T07:14:56.552Z,10.77
2023-05-07T07:18:01.854Z,11.20
2023-05-07T07:21:05.866Z,11.32
2023-05-07T07:24:09.037Z,10.95
2023-05-07T07:27:12.206Z,10.77
2023-05-07T07:30:16.141Z,10.94
2023-05-07T07:33:24.610Z,11.23
2023-05-07T07:36:38.910Z,11.51
2023-05-07T07:39:50.404Z,11.62
2023-05-07T07:42:53.779Z,11.93
2023-05-07T07:45:57.094Z,12.10
2023-05-07T07:49:02.227Z,11.99
2023-05-07T07:52:06.174Z,12.07
2023-05-07T07:55:13.101Z,12.27
2023-05-07T07:58:17.220Z,12.32
2023-05-07T08:01:20.707Z,12.34
2023-05-07T08:04:26.250Z,12.72
2023-05-07T08:07:31.670Z,12.66
2023-05-07T08:10:39.126Z,12.70
2023-05-07T08:13:48.551Z,12.86
2023-05-07T08:16:51.972Z,12.53
2023-05-07T08:19:57.018Z,12.59
2023-05-07T08:23:00.418Z,13.01
2023-05-07T08:26:04.457Z,12.92
2023-05-07T08:29:07.749Z,13.15
2023-05-07T08:32:11.193Z,13.24
2023-05-07T08:35:15.635Z,13.16
2023-05-07T08:38:18.913Z,13.17
2023-05-07T08:41:24.937Z,13.13
2023-05-07T08:44:29.878Z,13.41
2023-05-07T08:47:42.623Z,13.83
2023-05-07T08:50:47.319Z,13.80
2023-05-07T08:53:51.592Z,14.18
2023-05-07T08:57:01.987Z,14.54
2023-05-07T09:00:07.988Z,14.81
2023-05-07T09:03:13.823Z,14.73
2023-05-07T09:06:21.289Z,14.52
2023-05-07T09:09:24.576Z,14.34
2023-05-07T09:12:30.691Z,14.35
2023-05-07T09:15:34.846Z,14.87
2023-05-07T09:18:43.428Z,14.83
2023-05-07T09:21:50.076Z,14.89
2023-05-07T09:24:54.661Z,14.86
2023-05-07T09:28:02.720Z,14.99
2023-05-07T09:31:06.313Z,14.85
2023-05-07T09:34:09.763Z,14.45
2023-05-07T09:37:18.684Z,14.76
2023-05-07T09:40:23.947Z,14.71
2023-05-07T09:43:28.088Z,14.78
2023-05-07T09:46:37.296Z,14.57
2023-05-07T09:49:49.958Z,14.21
2023-05-07T09:52:59.282Z,14.22
2023-05-07T09:56:05.310Z,14.93
2023-05-07T09:59:10.573Z,14.88
2023-05-07T10:02:15.574Z,14.74
2023-05-07T10:05:24.669Z,14.89
2023-05-07T10:08:33.037Z,14.99
2023-05-07T10:11:40.291Z,15.54
2023-05-07T10:14:44.065Z,15.92
2023-05-07T10:17:47.872Z,15.50
2023-05-07T10:20:54.186Z,15.24
2023-05-07T10:24:02.390Z,15.50
2023-05-07T10:27:15.364Z,15.62
2023-05-07T10:30:38.283Z,15.85
2023-05-07T10:33:43.649Z,15.60
2023-05-07T10:36:47.804Z,15.57
2023-05-07T10:39:53.512Z,15.96
2023-05-07T10:43:00.453Z,16.31
2023-05-07T10:46:15.647Z,16.24
2023-05-07T10:49:24.647Z,16.13
2023-05-07T10:52:34.844Z,15.47
2023-05-07T10:55:52.371Z,16.24
2023-05-07T10:59:42.602Z,16.27
2023-05-07T11:03:36.764Z,16.06
2023-05-07T11:06:44.001Z,16.18
2023-05-07T11:10:06.342Z,15.80
2023-05-07T11:13:47.215Z,15.36
2023-05-07T11:17:15.738Z,15.19
2023-05-07T11:20:56.896Z,15.15
2023-05-07T11:24:23.550Z,16.28
2023-05-07T11:27:31.944Z,16.52
2023-05-07T11:30:35.246Z,16.66
2023-05-07T11:33:40.475Z,16.91
2023-05-07T11:36:50.122Z,16.50
2023-05-07T11:40:07.634Z,16.09
2023-05-07T11:43:13.117Z,16.75
2023-05-07T11:46:16.400Z,16.50
2023-05-07T11:49:20.389Z,16.45
2023-05-07T11:52:26.422Z,16.56
2023-05-07T11:55:29.906Z,16.44
2023-05-07T11:58:33.232Z,16.52
2023-05-07T12:01:38.018Z,16.41
2023-05-07T12:04:41.616Z,16.17
2023-05-07T12:07:46.133Z,16.94
2023-05-07T12:10:52.554Z,17.19
2023-05-07T12:13:59.834Z,17.60
2023-05-07T12:17:04.181Z,17.90
2023-05-07T12:20:09.494Z,17.20
2023-05-07T12:23:15.123Z,16.78
2023-05-07T12:26:18.367Z,16.51
2023-05-07T12:29:23.939Z,16.44
2023-05-07T12:32:27.216Z,16.96
2023-05-07T12:35:32.523Z,17.80
2023-05-07T12:38:40.975Z,17.21
2023-05-07T12:41:57.602Z,17.18
2023-05-07T12:45:00.673Z,17.46
2023-05-07T12:48:04.465Z,17.65
2023-05-07T12:51:08.997Z,17.55
2023-05-07T12:54:13.656Z,17.18
2023-05-07T12:57:16.708Z,16.84
2023-05-07T13:00:20.406Z,16.51
2023-05-07T13:03:26.019Z,16.63
2023-05-07T13:06:30.549Z,17.35
2023-05-07T13:09:35.196Z,17.39
2023-05-07T13:12:38.307Z,17.59
2023-05-07T13:15:41.359Z,17.23
2023-05-07T13:18:46.879Z,17.30
2023-05-07T13:21:50.682Z,17.60
2023-05-07T13:24:57.000Z,18.05
2023-05-07T13:28:10.043Z,18.29
2023-05-07T13:31:13.636Z,17.75
2023-05-07T13:34:16.769Z,17.05
2023-05-07T13:37:19.829Z,17.23
2023-05-07T13:40:24.649Z,17.17
2023-05-07T13:43:27.714Z,17.49
2023-05-07T13:46:31.572Z,17.63
2023-05-07T13:49:34.654Z,18.11
2023-05-07T13:52:37.708Z,18.51
2023-05-07T13:55:44.632Z,17.86
2023-05-07T13:58:58.822Z,17.35
2023-05-07T14:02:02.979Z,16.62
2023-05-07T14:05:07.108Z,16.78
2023-05-07T14:08:10.346Z,17.13
2023-05-07T14:11:14.713Z,17.32
2023-05-07T14:14:18.149Z,17.29
2023-05-07T14:17:24.141Z,16.86
2023-05-07T14:20:27.846Z,16.67
2023-05-07T14:23:31.098Z,16.37
2023-05-07T14:26:35.711Z,16.39
2023-05-07T14:29:38.764Z,16.44
2023-05-07T14:32:41.854Z,16.50
2023-05-07T14:35:48.923Z,16.31
2023-05-07T14:38:54.015Z,15.99
2023-05-07T14:41:59.452Z,16.17
2023-05-07T14:45:06.476Z,16.86
2023-05-07T14:48:10.374Z,17.52
2023-05-07T14:51:15.273Z,17.36
2023-05-07T14:54:18.485Z,17.20
2023-05-07T14:57:23.007Z,17.76
2023-05-07T15:00:26.269Z,17.56
2023-05-07T15:03:29.866Z,17.30
2023-05-07T15:06:33.367Z,17.22
2023-05-07T15:09:36.415Z,16.82
2023-05-07T15:12:40.896Z,16.42
2023-05-07T15:15:45.585Z,16.24
2023-05-07T15:18:51.473Z,16.52
2023-05-07T15:21:54.610Z,16.62
2023-05-07T15:24:58.263Z,16.89
2023-05-07T15:28:02.927Z,16.45
2023-05-07T15:31:06.289Z,16.42
2023-05-07T15:34:09.606Z,16.31
2023-05-07T15:37:12.762Z,16.25
2023-05-07T15:40:15.920Z,15.95
2023-05-07T15:43:20.421Z,15.98
2023-05-07T15:46:25.645Z,16.46
2023-05-07T15:49:28.939Z,16.73
2023-05-07T15:52:32.533Z,16.70
2023-05-07T15:55:35.645Z,16.41
2023-05-07T15:58:40.008Z,16.50
2023-05-07T16:01:43.510Z,16.62
2023-05-07T16:04:47.505Z,16.74
2023-05-07T16:07:51.427Z,16.63
2023-05-07T16:10:54.540Z,16.43
2023-05-07T16:14:00.758Z,16.37
2023-05-07T16:17:03.859Z,16.50
2023-05-07T16:20:09.649Z,16.27
2023-05-07T16:23:26.752Z,15.97
2023-05-07T16:26:30.830Z,15.92
2023-05-07T16:29:35.313Z,15.54
2023-05-07T16:32:38.439Z,15.56
2023-05-07T16:35:41.615Z,15.39
2023-05-07T16:38:44.906Z,15.21
2023-05-07T16:41:50.614Z,15.04
2023-05-07T16:44:55.110Z,14.96
2023-05-07T16:47:58.699Z,14.91
2023-05-07T16:51:02.187Z,14.68
2023-05-07T16:54:05.361Z,14.82
2023-05-07T16:57:08.470Z,14.87
2023-05-07T17:00:19.705Z,14.92
2023-05-07T17:03:24.034Z,14.90
2023-05-07T17:06:27.979Z,15.02
2023-05-07T17:09:31.073Z,15.03
2023-05-07T17:12:35.826Z,14.93
2023-05-07T17:15:41.243Z,14.84
2023-05-07T17:18:54.234Z,14.54
2023-05-07T17:21:57.571Z,14.36
2023-05-07T17:25:04.287Z,14.20
2023-05-07T17:28:07.381Z,14.17
2023-05-07T17:31:11.856Z,14.18
2023-05-07T17:34:15.551Z,14.20
2023-05-07T17:37:18.861Z,14.20
2023-05-07T17:40:24.759Z,14.22
2023-05-07T17:43:27.920Z,14.02
2023-05-07T17:46:32.744Z,13.87
2023-05-07T17:49:54.426Z,13.82
2023-05-07T17:53:00.761Z,13.88
2023-05-07T17:56:03.811Z,13.81
2023-05-07T17:59:06.944Z,13.83
2023-05-07T18:05:45.060Z,13.71
2023-05-07T18:08:49.027Z,13.61
2023-05-07T18:11:55.042Z,13.54
2023-05-07T18:15:01.182Z,13.50
2023-05-07T18:18:06.981Z,13.51
2023-05-07T18:21:18.563Z,13.48
2023-05-07T18:24:25.339Z,13.44
2023-05-07T18:27:29.198Z,13.40
2023-05-07T18:30:34.928Z,13.42
2023-05-07T18:34:04.164Z,13.46
2023-05-07T18:37:09.874Z,13.50
2023-05-07T18:40:22.469Z,13.41
2023-05-07T18:43:35.050Z,13.32
2023-05-07T18:46:51.313Z,13.23
2023-05-07T18:49:58.730Z,13.19
2023-05-07T18:53:02.799Z,13.11
2023-05-07T18:56:10.389Z,12.98
2023-05-07T18:59:14.054Z,12.92
2023-05-07T19:02:24.745Z,12.81
2023-05-07T19:05:29.393Z,12.81
2023-05-07T19:08:32.952Z,12.73
2023-05-07T19:11:36.000Z,12.70
2023-05-07T19:14:41.173Z,12.71
2023-05-07T19:17:44.402Z,12.75
2023-05-07T19:20:52.096Z,12.69
2023-05-07T19:23:58.152Z,12.64
2023-05-07T19:27:01.709Z,12.62
2023-05-07T19:30:06.343Z,12.60
2023-05-07T19:33:09.663Z,12.52
2023-05-07T19:36:14.296Z,12.44
2023-05-07T19:39:20.472Z,12.37
2023-05-07T19:42:23.717Z,12.31
2023-05-07T19:45:27.126Z,12.25
2023-05-07T19:48:36.849Z,12.18
2023-05-07T19:51:41.777Z,12.10
2023-05-07T19:55:11.481Z,12.02
2023-05-07T19:58:17.089Z,11.94
2023-05-07T20:01:22.269Z,11.86
2023-05-07T20:04:29.881Z,11.86
2023-05-07T20:07:34.349Z,11.73
2023-05-07T20:10:37.474Z,11.64
2023-05-07T20:13:40.530Z,11.64
2023-05-07T20:16:43.696Z,11.63
2023-05-07T20:19:52.801Z,11.50
2023-05-07T20:22:57.337Z,11.45
2023-05-07T20:26:00.389Z,11.42
2023-05-07T20:29:04.383Z,11.39
2023-05-07T20:32:07.690Z,11.31
2023-05-07T20:35:11.420Z,11.29
2023-05-07T20:38:15.840Z,11.21
2023-05-07T20:41:21.051Z,11.14
2023-05-07T20:44:24.543Z,11.09
2023-05-07T20:47:27.858Z,11.03
2023-05-07T20:50:34.074Z,11.00
2023-05-07T20:53:40.583Z,10.93
2023-05-07T20:56:43.665Z,10.72
2023-05-07T20:59:46.984Z,10.70
2023-05-07T21:02:50.357Z,10.68
2023-05-07T21:05:54.492Z,10.65
2023-05-07T21:08:58.780Z,10.57
2023-05-07T21:12:01.775Z,10.54
2023-05-07T21:15:08.967Z,10.50
2023-05-07T21:18:12.548Z,10.46
2023-05-07T21:21:16.476Z,10.41
2023-05-07T21:24:20.815Z,10.32
2023-05-07T21:27:24.327Z,10.26
2023-05-07T21:30:27.415Z,10.26
2023-05-07T21:33:30.495Z,10.23
2023-05-07T21:36:33.527Z,10.15
2023-05-07T21:39:37.963Z,10.03
2023-05-07T21:42:41.133Z,10.02
2023-05-07T21:45:44.148Z,9.99
2023-05-07T21:48:47.673Z,9.97
2023-05-07T21:51:50.797Z,9.95
2023-05-07T21:54:55.253Z,9.90
2023-05-07T21:58:05.400Z,9.85
2023-05-07T22:01:12.395Z,9.78
2023-05-07T22:04:15.568Z,9.75
2023-05-07T22:07:18.639Z,9.72
2023-05-07T22:10:24.019Z,9.69
2023-05-07T22:13:28.918Z,9.61
2023-05-07T22:16:32.160Z,9.53
2023-05-07T22:19:35.464Z,9.46
2023-05-07T22:22:49.340Z,9.42
2023-05-07T22:25:55.860Z,9.38
2023-05-07T22:28:58.975Z,9.33
2023-05-07T22:32:02.292Z,9.35
2023-05-07T22:35:09.158Z,9.32
2023-05-07T22:38:12.271Z,9.25
2023-05-07T22:41:16.595Z,9.16
2023-05-07T22:44:19.907Z,9.11
2023-05-07T22:47:23.448Z,9.03
2023-05-07T22:50:28.521Z,9.00
2023-05-07T22:53:31.546Z,8.92
2023-05-07T22:56:36.107Z,8.81
2023-05-07T22:59:39.248Z,8.78
2023-05-07T23:02:42.856Z,8.77
2023-05-07T23:05:47.812Z,8.76
2023-05-07T23:08:51.356Z,8.72
2023-05-07T23:11:55.828Z,8.68
2023-05-07T23:14:58.875Z,8.65
2023-05-07T23:18:04.141Z,8.62
2023-05-07T23:21:07.834Z,8.64
2023-05-07T23:24:11.498Z,8.60
2023-05-07T23:27:15.925Z,8.58
2023-05-07T23:30:22.213Z,8.54
2023-05-07T23:33:27.597Z,8.48
2023-05-07T23:36:31.512Z,8.42
2023-05-07T23:39:34.582Z,8.36
2023-05-07T23:42:38.928Z,8.32
2023-05-07T23:45:41.993Z,8.24
2023-05-07T23:48:45.050Z,8.16
2023-05-07T23:51:48.208Z,8.15
2023-05-07T23:54:51.207Z,8.13
2023-05-07T23:57:55.534Z,8.06
